Time;durP1;ratioP1;P1;durP2;ratioP2;P2;SDS_P1;SDS_P2;PMS_P1;PMS_P2;Temp;Humidity;BMP_temperature;BMP_pressure;BME280_temperature;BME280_humidity;BME280_pressure;Samples;Min_cycle;Max_cycle;Signal;HPM_P1;HPM_P2
2022/01/23 00:00:42;;;;;;;16.42;4.18;;;5.10;99.90;;;;;;5087497;28;20443;-78
2022/01/23 00:03:16;;;;;;;8.00;3.95;;;5.10;99.90;;;;;;5094549;28;20044;-78
2022/01/23 00:05:44;;;;;;;10.02;5.32;;;5.10;99.90;;;;;;5086078;28;20037;-79
2022/01/23 00:08:12;;;;;;;7.13;3.78;;;5.10;99.90;;;;;;5081575;28;20040;-78
2022/01/23 00:10:38;;;;;;;11.52;5.20;;;5.10;99.90;;;;;;5080251;28;20048;-78
2022/01/23 00:18:33;;;;;;;9.02;4.22;;;5.10;99.90;;;;;;5089959;28;20044;-78
2022/01/23 00:20:58;;;;;;;9.40;4.40;;;5.10;99.90;;;;;;5081910;28;20082;-79
2022/01/23 00:23:32;;;;;;;10.57;4.13;;;5.10;99.90;;;;;;5078246;28;20133;-78
2022/01/23 00:31:29;;;;;;;9.20;3.80;;;5.10;99.90;;;;;;5082190;28;20049;-79
2022/01/23 00:33:56;;;;;;;8.80;3.95;;;5.10;99.90;;;;;;5101343;28;20056;-78
2022/01/23 00:36:23;;;;;;;7.95;4.10;;;5.10;99.90;;;;;;5104952;28;20040;-78
2022/01/23 00:38:49;;;;;;;8.40;4.20;;;5.10;99.90;;;;;;5096291;28;20051;-78
2022/01/23 00:41:15;;;;;;;12.68;4.32;;;5.10;99.90;;;;;;5079961;28;20041;-79
2022/01/23 00:43:42;;;;;;;9.20;4.15;;;5.10;99.90;;;;;;5088701;28;20467;-78
2022/01/23 00:49:03;;;;;;;8.13;4.00;;;5.10;99.90;;;;;;5088340;28;20055;-77
2022/01/23 00:51:32;;;;;;;12.15;5.75;;;5.10;99.90;;;;;;5085118;28;20045;-79
2022/01/23 00:53:59;;;;;;;11.65;4.47;;;5.10;99.90;;;;;;5097127;28;20433;-80
2022/01/23 00:56:25;;;;;;;11.30;4.25;;;5.10;99.90;;;;;;5078558;28;20073;-80
2022/01/23 00:58:51;;;;;;;8.48;4.50;;;5.10;99.90;;;;;;5079081;28;20068;-80
2022/01/23 01:01:18;;;;;;;9.00;4.22;;;5.10;99.90;;;;;;5084796;28;20040;-81
2022/01/23 01:03:44;;;;;;;12.52;4.65;;;5.10;99.90;;;;;;5078177;28;20048;-80
2022/01/23 01:06:10;;;;;;;13.10;4.43;;;5.10;99.90;;;;;;5077958;28;20044;-80
2022/01/23 01:08:36;;;;;;;11.48;5.30;;;5.10;99.90;;;;;;5094333;28;20069;-80
2022/01/23 01:16:55;;;;;;;7.32;4.13;;;5.10;99.90;;;;;;5078124;28;20139;-80
2022/01/23 01:33:16;;;;;;;10.60;5.32;;;5.00;99.90;;;;;;5086395;28;20049;-80
2022/01/23 01:36:15;;;;;;;10.65;4.57;;;5.00;99.90;;;;;;5081172;28;20064;-79
2022/01/23 01:38:41;;;;;;;11.23;4.45;;;5.10;99.90;;;;;;5076396;28;20063;-79
2022/01/23 01:41:07;;;;;;;9.18;4.28;;;5.00;99.90;;;;;;5086304;28;20048;-79
2022/01/23 01:43:33;;;;;;;11.18;5.22;;;5.00;99.90;;;;;;5096175;28;20032;-80
2022/01/23 01:45:59;;;;;;;10.95;4.60;;;4.90;99.90;;;;;;5088486;28;20047;-79
2022/01/23 01:48:25;;;;;;;13.02;5.30;;;4.90;99.90;;;;;;5085047;28;20041;-78
2022/01/23 01:50:54;;;;;;;9.18;4.20;;;4.90;99.90;;;;;;5077537;28;20086;-79
2022/01/23 01:53:21;;;;;;;9.82;4.97;;;4.90;99.90;;;;;;5083573;28;20036;-78
2022/01/23 01:55:52;;;;;;;9.93;4.65;;;4.90;99.90;;;;;;5081101;28;20063;-79
2022/01/23 02:01:11;;;;;;;7.85;4.25;;;4.90;99.90;;;;;;5078027;28;20041;-80
2022/01/23 02:09:12;;;;;;;9.13;4.53;;;4.90;99.90;;;;;;5077869;28;20045;-81
2022/01/23 02:12:18;;;;;;;11.18;4.55;;;4.90;99.90;;;;;;5077175;28;20052;-80
2022/01/23 02:55:28;;;;;;;14.45;5.30;;;5.00;99.90;;;;;;5080570;28;20052;-80
2022/01/23 02:58:00;;;;;;;11.90;5.18;;;5.00;99.90;;;;;;5082054;28;20044;-80
2022/01/23 03:00:33;;;;;;;12.32;4.75;;;5.00;99.90;;;;;;5087928;28;20049;-79
2022/01/23 03:03:11;;;;;;;10.98;4.68;;;5.00;99.90;;;;;;5080984;28;20859;-79
2022/01/23 03:05:39;;;;;;;9.75;4.90;;;5.00;99.90;;;;;;5083769;28;20104;-79
2022/01/23 03:10:45;;;;;;;12.15;5.63;;;5.00;99.90;;;;;;5081454;28;20052;-79
2022/01/23 03:30:14;;;;;;;11.48;4.47;;;5.40;99.90;;;;;;5041396;28;20068;-77
2022/01/23 03:32:44;;;;;;;11.45;4.95;;;5.00;99.90;;;;;;5086764;28;20130;-77
2022/01/23 03:35:10;;;;;;;10.98;4.93;;;5.00;99.90;;;;;;5084245;28;20056;-77
2022/01/23 03:37:36;;;;;;;11.77;5.18;;;5.00;99.90;;;;;;5084565;28;20043;-78
2022/01/23 03:40:05;;;;;;;9.43;4.47;;;5.00;99.90;;;;;;5084541;28;20131;-77
2022/01/23 03:42:33;;;;;;;11.25;4.82;;;5.00;99.90;;;;;;5098416;28;20066;-78
2022/01/23 03:45:19;;;;;;;12.02;4.97;;;5.00;99.90;;;;;;5101309;28;20040;-78
2022/01/23 03:49:29;;;;;;;11.52;4.47;;;5.00;99.90;;;;;;5090506;28;20190;-79
2022/01/23 03:50:30;;;;;;;10.77;4.68;;;5.00;99.90;;;;;;5082796;28;20135;-79
2022/01/23 03:52:56;;;;;;;11.32;4.38;;;5.00;99.90;;;;;;5098345;28;20048;-79
2022/01/23 03:55:22;;;;;;;13.38;4.95;;;5.00;99.90;;;;;;5077577;28;20048;-78
2022/01/23 03:57:47;;;;;;;12.32;4.80;;;5.00;99.90;;;;;;5080617;28;20040;-79
2022/01/23 04:00:16;;;;;;;11.18;4.82;;;5.00;99.90;;;;;;5077440;28;20052;-80
2022/01/23 04:02:42;;;;;;;11.15;5.10;;;5.00;99.90;;;;;;5079836;28;20049;-79
2022/01/23 04:05:08;;;;;;;10.05;4.78;;;5.00;99.90;;;;;;5081712;28;20223;-80
2022/01/23 04:07:36;;;;;;;11.98;4.63;;;4.90;99.90;;;;;;5079753;28;20040;-80
2022/01/23 04:10:03;;;;;;;10.65;5.22;;;4.90;99.90;;;;;;5080504;28;20036;-80
2022/01/23 04:33:55;;;;;;;10.98;5.20;;;4.90;99.90;;;;;;5083146;28;20048;-84
2022/01/23 04:48:22;;;;;;;9.07;5.47;;;4.90;99.90;;;;;;5078694;28;20048;-82
2022/01/23 05:01:07;;;;;;;14.38;6.18;;;4.90;99.90;;;;;;5099304;28;20044;-79
2022/01/23 05:06:03;;;;;;;14.98;5.75;;;5.00;99.90;;;;;;5079151;28;20634;-82
2022/01/23 05:08:32;;;;;;;11.75;5.22;;;5.00;99.90;;;;;;5078517;28;20495;-80
2022/01/23 05:11:00;;;;;;;15.05;5.85;;;4.60;99.90;;;;;;5077908;28;20083;-80
2022/01/23 05:13:27;;;;;;;11.75;5.65;;;4.90;99.90;;;;;;5075603;28;20591;-80
2022/01/23 05:15:53;;;;;;;12.88;5.75;;;4.90;99.90;;;;;;5078554;28;20587;-79
2022/01/23 05:18:19;;;;;;;12.27;5.85;;;5.30;99.90;;;;;;5078586;28;20103;-80
2022/01/23 05:20:47;;;;;;;14.35;6.20;;;5.00;99.90;;;;;;5078348;28;20036;-79
2022/01/23 05:23:12;;;;;;;15.30;5.75;;;5.00;99.90;;;;;;5079393;28;20516;-79
2022/01/23 05:25:39;;;;;;;13.27;5.57;;;5.00;99.90;;;;;;5076830;28;20048;-80
2022/01/23 05:28:07;;;;;;;14.98;6.22;;;4.90;99.90;;;;;;5079251;28;20128;-80
2022/01/23 05:30:34;;;;;;;14.18;6.60;;;5.00;99.90;;;;;;5077274;28;20040;-80
2022/01/23 05:33:00;;;;;;;15.00;6.15;;;5.00;99.90;;;;;;5104224;28;20044;-82
2022/01/23 05:35:28;;;;;;;12.35;5.57;;;5.00;99.90;;;;;;5082741;28;20634;-81
2022/01/23 05:37:54;;;;;;;10.48;5.70;;;5.00;99.90;;;;;;5086590;28;20074;-83
2022/01/23 05:40:22;;;;;;;12.48;5.90;;;5.00;99.90;;;;;;5079209;28;20070;-81
2022/01/23 05:42:48;;;;;;;14.05;5.75;;;5.00;99.90;;;;;;5084169;28;20044;-81
2022/01/23 05:45:14;;;;;;;13.63;5.28;;;5.00;99.90;;;;;;5079065;28;20067;-81
2022/01/23 05:47:40;;;;;;;10.98;5.50;;;5.00;99.90;;;;;;5077395;28;20036;-82
2022/01/23 05:50:07;;;;;;;13.80;5.70;;;5.00;99.90;;;;;;5086738;28;20076;-82
2022/01/23 05:52:33;;;;;;;10.73;5.75;;;5.00;99.90;;;;;;5077334;28;20049;-81
2022/01/23 05:54:59;;;;;;;12.32;6.40;;;4.90;99.90;;;;;;5077890;28;20485;-80
2022/01/23 05:57:25;;;;;;;12.27;5.10;;;4.90;99.90;;;;;;5078735;28;20055;-82
2022/01/23 05:59:51;;;;;;;11.60;6.07;;;5.00;99.90;;;;;;5077769;28;20049;-80
2022/01/23 06:02:17;;;;;;;9.57;4.75;;;5.00;99.90;;;;;;5079307;28;20400;-82
2022/01/23 06:04:42;;;;;;;11.68;5.97;;;5.00;99.90;;;;;;5086017;28;20044;-81
2022/01/23 06:07:08;;;;;;;10.50;5.65;;;4.90;99.90;;;;;;5078218;28;20064;-80
2022/01/23 06:09:37;;;;;;;11.85;5.80;;;5.00;99.90;;;;;;5078298;28;20036;-80
2022/01/23 06:12:03;;;;;;;14.38;5.60;;;4.90;99.90;;;;;;5082870;28;20040;-79
2022/01/23 06:14:29;;;;;;;10.15;4.22;;;5.00;99.90;;;;;;5078727;28;20106;-79
2022/01/23 06:16:55;;;;;;;11.70;5.65;;;4.90;99.90;;;;;;5077880;28;20053;-79
2022/01/23 06:19:21;;;;;;;11.23;4.95;;;4.90;99.90;;;;;;5076282;28;20037;-80
2022/01/23 06:21:46;;;;;;;11.85;4.72;;;5.00;99.90;;;;;;5078637;28;20056;-80
2022/01/23 06:24:24;;;;;;;10.82;5.20;;;5.00;99.90;;;;;;5080783;28;20045;-79
2022/01/23 06:26:55;;;;;;;9.73;4.88;;;4.90;99.90;;;;;;5081961;28;20110;-79
2022/01/23 06:29:22;;;;;;;13.05;4.93;;;4.90;99.90;;;;;;5079990;28;20055;-80
2022/01/23 06:31:49;;;;;;;13.35;5.15;;;5.20;99.90;;;;;;5094546;28;20453;-79
2022/01/23 06:34:17;;;;;;;11.27;5.30;;;4.90;99.90;;;;;;5093295;28;20104;-78
2022/01/23 06:36:44;;;;;;;11.60;5.43;;;5.20;99.90;;;;;;5093265;28;20052;-78
2022/01/23 06:39:12;;;;;;;11.13;5.20;;;5.00;99.90;;;;;;5084403;28;20079;-79
2022/01/23 06:41:39;;;;;;;10.85;5.85;;;4.90;99.90;;;;;;5101328;28;20452;-80
2022/01/23 06:44:06;;;;;;;12.32;5.15;;;4.90;99.90;;;;;;5110765;28;20047;-82
2022/01/23 06:46:33;;;;;;;11.57;5.65;;;4.90;99.90;;;;;;5090436;28;20063;-83
2022/01/23 06:48:59;;;;;;;15.18;5.10;;;4.90;99.90;;;;;;5081444;28;20051;-80
2022/01/23 06:51:26;;;;;;;12.82;5.60;;;4.90;99.90;;;;;;5099467;28;20047;-81
2022/01/23 06:53:52;;;;;;;13.05;5.13;;;4.90;99.90;;;;;;5100920;28;20048;-81
2022/01/23 06:56:18;;;;;;;9.30;5.40;;;4.90;99.90;;;;;;5101032;28;20048;-82
2022/01/23 06:58:44;;;;;;;11.48;5.30;;;4.90;99.90;;;;;;5085885;28;20052;-81
2022/01/23 07:01:10;;;;;;;13.77;6.03;;;4.90;99.90;;;;;;5080288;28;20490;-81
2022/01/23 07:03:37;;;;;;;12.05;5.65;;;4.90;99.90;;;;;;5082533;28;20040;-80
2022/01/23 07:06:03;;;;;;;12.43;6.03;;;5.00;99.90;;;;;;5096244;28;20118;-80
2022/01/23 07:08:29;;;;;;;9.40;4.70;;;4.60;99.90;;;;;;5088767;28;20039;-80
2022/01/23 07:10:55;;;;;;;14.32;5.43;;;4.90;99.90;;;;;;5093562;28;20416;-79
2022/01/23 07:13:21;;;;;;;10.13;5.70;;;4.90;99.90;;;;;;5084566;28;20036;-79
2022/01/23 07:15:47;;;;;;;9.63;4.70;;;5.00;99.90;;;;;;5094684;28;20047;-79
2022/01/23 07:18:15;;;;;;;13.75;5.05;;;4.80;99.90;;;;;;5089509;28;20032;-79
2022/01/23 07:20:42;;;;;;;11.88;4.93;;;4.80;99.90;;;;;;5080608;28;20060;-79
2022/01/23 07:23:08;;;;;;;11.38;5.20;;;4.90;99.90;;;;;;5081277;28;20214;-79
2022/01/23 07:25:34;;;;;;;10.63;5.88;;;4.80;99.90;;;;;;5078919;28;20100;-80
2022/01/23 07:28:01;;;;;;;10.63;5.30;;;4.80;99.90;;;;;;5081199;28;20100;-81
2022/01/23 07:30:38;;;;;;;9.43;5.20;;;4.80;99.90;;;;;;5080590;28;20083;-81
2022/01/23 07:33:04;;;;;;;12.90;5.45;;;4.80;99.90;;;;;;5108470;28;20055;-83
2022/01/23 07:35:30;;;;;;;12.52;6.13;;;4.80;99.90;;;;;;5083806;28;20059;-81
2022/01/23 07:37:56;;;;;;;11.85;5.25;;;4.90;99.90;;;;;;5081611;28;20044;-81
2022/01/23 07:40:22;;;;;;;10.80;4.85;;;4.90;99.90;;;;;;5101497;28;20615;-81
2022/01/23 07:42:47;;;;;;;10.00;4.80;;;5.20;99.90;;;;;;5083429;28;20593;-81
2022/01/23 07:45:13;;;;;;;10.68;5.15;;;4.90;99.90;;;;;;5080875;28;20063;-81
2022/01/23 07:47:39;;;;;;;8.85;4.70;;;4.90;99.90;;;;;;5088349;28;20040;-81
2022/01/23 07:50:08;;;;;;;12.23;5.68;;;4.90;99.90;;;;;;5080747;28;20048;-81
2022/01/23 07:52:35;;;;;;;12.43;5.70;;;4.90;99.90;;;;;;5080735;28;20045;-81
2022/01/23 07:55:13;;;;;;;11.65;5.28;;;4.90;99.90;;;;;;5079470;28;20052;-80
2022/01/23 07:57:42;;;;;;;10.45;4.97;;;4.90;99.90;;;;;;5081057;28;20182;-81
2022/01/23 08:00:10;;;;;;;9.63;5.35;;;4.90;99.90;;;;;;5081340;28;20508;-80
2022/01/23 08:02:36;;;;;;;8.50;4.32;;;4.90;99.90;;;;;;5086257;28;20048;-81
2022/01/23 08:05:04;;;;;;;9.25;4.57;;;5.00;99.90;;;;;;5083081;28;20451;-81
2022/01/23 08:09:59;;;;;;;11.60;4.20;;;4.90;99.90;;;;;;5080281;28;20048;-80
2022/01/23 08:12:29;;;;;;;10.20;4.95;;;5.00;99.90;;;;;;5079385;28;20040;-78
2022/01/23 08:14:56;;;;;;;9.95;4.88;;;4.90;99.90;;;;;;5079006;28;20055;-78
2022/01/23 08:17:26;;;;;;;11.68;4.57;;;5.00;99.90;;;;;;5089501;28;20048;-78
2022/01/23 08:19:53;;;;;;;8.90;4.47;;;5.00;99.90;;;;;;5086456;28;20385;-78
2022/01/23 08:22:20;;;;;;;8.80;4.30;;;5.00;99.90;;;;;;5085530;28;20044;-78
2022/01/23 08:24:46;;;;;;;9.73;4.60;;;5.10;99.90;;;;;;5099464;28;20044;-78
2022/01/23 08:27:12;;;;;;;10.77;4.28;;;5.10;99.90;;;;;;5084611;28;20055;-78
2022/01/23 08:29:37;;;;;;;10.32;4.40;;;5.10;99.90;;;;;;5077147;28;20060;-78
2022/01/23 08:32:03;;;;;;;8.73;4.55;;;5.10;99.90;;;;;;5089938;28;20048;-77
2022/01/23 08:34:29;;;;;;;9.93;4.72;;;5.10;99.90;;;;;;5088588;28;20064;-78
2022/01/23 08:36:55;;;;;;;10.48;4.65;;;5.10;99.90;;;;;;5079222;28;20530;-78
2022/01/23 08:39:24;;;;;;;9.93;4.18;;;5.20;99.90;;;;;;5079332;28;20063;-78
2022/01/23 08:41:50;;;;;;;10.30;3.88;;;5.20;99.90;;;;;;5089188;28;20039;-79
2022/01/23 08:44:27;;;;;;;9.27;4.53;;;5.30;99.90;;;;;;5112720;28;20040;-79
2022/01/23 08:46:53;;;;;;;9.07;4.78;;;5.30;99.90;;;;;;5086369;28;20112;-79
2022/01/23 08:49:21;;;;;;;8.77;3.78;;;5.30;99.90;;;;;;5082261;28;20079;-78
2022/01/23 08:51:49;;;;;;;11.13;4.28;;;5.30;99.90;;;;;;5092040;28;20036;-78
2022/01/23 08:54:15;;;;;;;7.63;3.45;;;5.50;99.90;;;;;;5099433;28;20032;-78
2022/01/23 08:56:42;;;;;;;8.15;4.00;;;5.40;99.90;;;;;;5098494;28;20542;-77
2022/01/23 08:59:08;;;;;;;6.47;3.42;;;5.40;99.90;;;;;;5095056;28;20032;-78
2022/01/23 09:01:35;;;;;;;7.07;3.10;;;5.40;99.90;;;;;;5085292;28;20044;-78
2022/01/23 09:04:02;;;;;;;7.40;2.70;;;5.40;99.90;;;;;;5092031;28;20075;-78
2022/01/23 09:06:28;;;;;;;6.82;3.25;;;5.50;99.90;;;;;;5099148;28;20048;-79
2022/01/23 09:08:54;;;;;;;8.02;3.38;;;5.50;99.90;;;;;;5098593;28;20040;-78
2022/01/23 09:14:07;;;;;;;6.40;3.60;;;5.60;99.90;;;;;;5098754;28;20055;-78
2022/01/23 09:16:37;;;;;;;7.90;3.92;;;5.70;99.90;;;;;;5097928;28;20047;-79
2022/01/23 09:19:04;;;;;;;8.63;3.28;;;5.60;99.90;;;;;;5098230;28;20048;-80
2022/01/23 09:21:31;;;;;;;7.63;3.63;;;5.60;99.90;;;;;;5098230;28;20067;-77
2022/01/23 09:23:56;;;;;;;7.78;3.60;;;5.70;99.90;;;;;;5099421;28;20452;-77
2022/01/23 09:26:23;;;;;;;9.85;3.70;;;5.70;99.90;;;;;;5096932;28;20071;-76
2022/01/23 09:28:53;;;;;;;7.43;3.20;;;5.70;99.90;;;;;;5098512;28;20048;-78
2022/01/23 09:31:30;;;;;;;7.70;3.50;;;5.80;99.90;;;;;;5098841;28;20044;-77
2022/01/23 09:33:56;;;;;;;7.63;3.60;;;5.80;99.90;;;;;;5077306;28;20040;-82
2022/01/23 09:36:22;;;;;;;8.93;3.72;;;5.90;99.90;;;;;;5078018;28;20059;-77
2022/01/23 09:38:48;;;;;;;7.38;3.95;;;5.90;99.90;;;;;;5076226;28;20098;-77
2022/01/23 09:41:35;;;;;;;8.07;3.83;;;5.90;99.90;;;;;;5097688;28;20048;-76
2022/01/23 09:44:01;;;;;;;7.00;3.42;;;5.90;99.90;;;;;;5098044;28;20435;-75
2022/01/23 09:46:27;;;;;;;8.25;3.30;;;5.90;99.90;;;;;;5097588;28;20052;-74
2022/01/23 09:48:54;;;;;;;6.80;3.35;;;6.00;99.90;;;;;;5096401;28;20063;-74
2022/01/23 09:51:25;;;;;;;6.47;3.03;;;6.00;99.90;;;;;;5080393;28;20059;-75
2022/01/23 09:53:55;;;;;;;7.45;3.17;;;6.00;99.90;;;;;;5078766;28;20055;-74
2022/01/23 09:56:27;;;;;;;5.43;3.20;;;6.10;99.90;;;;;;5077864;28;20044;-75
2022/01/23 09:59:00;;;;;;;7.35;3.45;;;6.10;99.90;;;;;;5082020;28;20056;-76
2022/01/23 10:01:26;;;;;;;6.10;2.90;;;6.10;99.90;;;;;;5083009;28;20048;-76
2022/01/23 10:03:52;;;;;;;6.07;2.90;;;6.10;99.90;;;;;;5081403;28;20041;-75
2022/01/23 10:06:18;;;;;;;7.80;3.08;;;6.20;99.90;;;;;;5082415;28;20228;-76
2022/01/23 10:08:44;;;;;;;6.22;2.95;;;6.20;99.90;;;;;;5081611;28;20037;-76
2022/01/23 10:11:13;;;;;;;5.90;3.00;;;6.20;99.90;;;;;;5082706;28;20123;-76
2022/01/23 10:13:41;;;;;;;6.53;3.33;;;6.30;99.90;;;;;;5080862;28;20045;-75
2022/01/23 10:16:07;;;;;;;6.85;3.50;;;6.20;99.90;;;;;;5081503;28;20052;-75
2022/01/23 10:18:33;;;;;;;7.40;3.72;;;6.20;99.90;;;;;;5081691;28;20047;-77
2022/01/23 10:20:59;;;;;;;6.68;3.28;;;6.30;99.90;;;;;;5081261;28;20071;-77
2022/01/23 10:23:26;;;;;;;6.25;3.30;;;6.30;99.90;;;;;;5082379;28;20492;-75
2022/01/23 10:25:53;;;;;;;8.75;3.13;;;6.30;99.90;;;;;;5079877;28;20048;-74
2022/01/23 10:28:29;;;;;;;7.38;3.35;;;6.30;99.90;;;;;;5080360;28;20094;-76
2022/01/23 10:30:58;;;;;;;7.07;3.30;;;6.30;99.90;;;;;;5083879;28;20480;-75
2022/01/23 10:33:29;;;;;;;8.82;4.30;;;6.40;99.90;;;;;;5101055;28;20082;-77
2022/01/23 10:36:24;;;;;;;6.93;3.78;;;6.40;99.90;;;;;;5101631;28;20056;-76
2022/01/23 10:39:00;;;;;;;8.23;3.83;;;6.40;99.90;;;;;;5092252;28;20605;-76
2022/01/23 10:49:59;;;;;;;7.57;3.90;;;6.50;99.90;;;;;;5120519;28;20101;-76
2022/01/23 10:52:27;;;;;;;9.07;4.43;;;6.50;99.90;;;;;;5119555;28;20039;-76
2022/01/23 10:54:53;;;;;;;8.18;3.95;;;6.60;99.90;;;;;;5121583;28;20043;-75
2022/01/23 10:57:19;;;;;;;6.40;3.38;;;6.60;99.90;;;;;;5122213;28;20093;-76
2022/01/23 10:59:50;;;;;;;8.90;3.95;;;6.60;99.90;;;;;;5121179;28;20081;-75
2022/01/23 11:02:21;;;;;;;7.93;4.10;;;6.60;99.90;;;;;;5121966;28;20051;-75
2022/01/23 11:04:57;;;;;;;7.63;3.88;;;6.70;99.90;;;;;;5121535;28;20032;-75
2022/01/23 11:07:24;;;;;;;8.90;3.90;;;6.70;99.90;;;;;;5121342;28;20048;-75
2022/01/23 11:09:56;;;;;;;7.97;3.90;;;6.70;99.90;;;;;;5121875;28;20051;-74
2022/01/23 11:18:00;;;;;;;8.68;3.72;;;6.80;99.90;;;;;;5121153;28;20052;-75
2022/01/23 11:20:34;;;;;;;5.63;2.50;;;6.90;99.90;;;;;;5120829;28;20054;-76
2022/01/23 11:23:28;;;;;;;5.20;2.33;;;6.90;99.90;;;;;;5121683;28;20463;-76
2022/01/23 11:25:56;;;;;;;3.72;1.40;;;6.90;99.90;;;;;;5120891;28;20039;-77
2022/01/23 11:28:37;;;;;;;2.90;1.17;;;6.90;99.90;;;;;;5120976;28;20511;-76
2022/01/23 11:31:08;;;;;;;3.83;1.75;;;7.00;99.90;;;;;;5117973;28;20036;-77
2022/01/23 11:33:33;;;;;;;5.05;2.33;;;6.90;99.90;;;;;;5119078;28;20031;-76
2022/01/23 11:36:00;;;;;;;3.75;1.80;;;6.90;99.90;;;;;;5120975;28;20063;-74
2022/01/23 11:38:27;;;;;;;2.58;1.27;;;6.90;99.90;;;;;;5120590;28;20060;-76
2022/01/23 11:54:47;;;;;;;2.80;1.00;;;6.80;99.90;;;;;;5100356;28;20065;-76
2022/01/23 11:57:35;;;;;;;4.43;1.73;;;6.80;99.90;;;;;;5099101;28;20164;-77
2022/01/23 12:00:05;;;;;;;5.38;2.28;;;6.80;99.90;;;;;;5098493;28;20094;-76
2022/01/23 12:02:42;;;;;;;2.08;0.80;;;6.70;99.90;;;;;;5100470;28;20054;-78
2022/01/23 12:05:19;;;;;;;1.75;0.80;;;6.70;99.90;;;;;;5099845;28;20054;-78
2022/01/23 12:08:07;;;;;;;2.38;0.90;;;6.70;99.90;;;;;;5099422;28;20113;-77
2022/01/23 12:10:49;;;;;;;1.42;0.68;;;6.60;99.90;;;;;;5093071;28;20059;-78
2022/01/23 12:13:44;;;;;;;1.70;0.80;;;6.60;99.90;;;;;;5099362;28;20096;-77
2022/01/23 12:16:31;;;;;;;2.13;0.80;;;6.60;99.90;;;;;;5099061;28;20050;-76
2022/01/23 12:19:19;;;;;;;2.47;0.60;;;6.60;99.90;;;;;;5099881;28;20040;-76
2022/01/23 12:21:46;;;;;;;1.10;0.50;;;6.60;99.90;;;;;;5099372;28;20079;-78
2022/01/23 12:24:15;;;;;;;1.00;0.50;;;6.60;99.90;;;;;;5100234;28;20047;-78
2022/01/23 12:26:45;;;;;;;2.17;0.60;;;6.60;99.90;;;;;;5098066;28;20172;-76
2022/01/23 12:29:28;;;;;;;6.03;0.75;;;6.60;99.90;;;;;;5099417;28;20085;-77
2022/01/23 12:32:15;;;;;;;1.67;0.65;;;6.50;99.90;;;;;;5098754;28;20059;-77
2022/01/23 12:34:55;;;;;;;1.70;0.63;;;6.50;99.90;;;;;;5098723;28;20397;-78
2022/01/23 12:37:21;;;;;;;1.85;0.80;;;6.50;99.90;;;;;;5099451;28;20056;-78
2022/01/23 12:40:27;;;;;;;1.45;0.60;;;6.50;99.90;;;;;;5099518;28;20108;-78
2022/01/23 12:43:25;;;;;;;1.27;0.60;;;6.50;99.90;;;;;;5098414;28;20036;-78
2022/01/23 12:45:55;;;;;;;1.90;0.60;;;6.50;99.90;;;;;;5098801;28;20075;-78
2022/01/23 12:48:30;;;;;;;1.75;0.70;;;6.50;99.90;;;;;;5099269;28;20047;-78
2022/01/23 12:51:17;;;;;;;2.03;0.80;;;6.50;99.90;;;;;;5097048;28;20499;-77
2022/01/23 12:53:46;;;;;;;1.50;0.73;;;6.50;99.90;;;;;;5099937;28;20048;-76
2022/01/23 12:56:13;;;;;;;2.97;0.75;;;6.50;99.90;;;;;;5087544;28;20048;-78
2022/01/23 12:58:40;;;;;;;1.77;0.68;;;6.50;99.90;;;;;;5086204;28;20048;-77
2022/01/23 13:01:22;;;;;;;2.60;0.90;;;6.40;99.90;;;;;;5079739;28;20067;-78
2022/01/23 13:03:52;;;;;;;1.85;1.00;;;6.40;99.90;;;;;;5084181;28;20503;-78
2022/01/23 13:06:28;;;;;;;1.50;0.70;;;6.50;99.90;;;;;;5090128;28;20059;-80
2022/01/23 13:14:53;;;;;;;1.63;0.70;;;6.40;99.90;;;;;;5083420;28;20048;-79
2022/01/23 13:18:12;;;;;;;1.60;0.70;;;6.40;99.90;;;;;;5080537;28;20057;-78
2022/01/23 13:32:10;;;;;;;2.05;0.90;;;6.40;99.90;;;;;;5088588;28;20085;-76
2022/01/23 13:34:41;;;;;;;2.47;0.90;;;6.40;99.90;;;;;;5098073;28;20048;-76
2022/01/23 13:37:08;;;;;;;2.78;1.10;;;6.40;99.90;;;;;;5094190;28;20127;-77
2022/01/23 13:39:42;;;;;;;2.08;0.80;;;6.30;99.90;;;;;;5088264;28;20468;-78
2022/01/23 13:49:01;;;;;;;2.80;1.10;;;6.30;99.90;;;;;;5078618;28;20045;-78
2022/01/23 13:59:31;;;;;;;2.40;1.20;;;6.30;99.90;;;;;;5077593;28;20507;-75
2022/01/23 14:05:13;;;;;;;2.53;1.27;;;6.30;99.90;;;;;;5077863;28;20104;-77
2022/01/23 14:07:45;;;;;;;3.17;1.30;;;6.30;99.90;;;;;;5078061;28;20131;-78
2022/01/23 14:10:25;;;;;;;3.90;1.00;;;6.30;99.90;;;;;;5077735;28;20045;-76
2022/01/23 14:12:52;;;;;;;2.33;1.30;;;6.30;99.90;;;;;;5077769;28;20054;-76
2022/01/23 14:15:25;;;;;;;2.53;1.15;;;6.30;99.90;;;;;;5078904;28;20044;-77
2022/01/23 14:18:01;;;;;;;2.85;1.30;;;6.30;99.90;;;;;;5078168;28;20102;-77
2022/01/23 14:20:29;;;;;;;3.10;1.45;;;6.30;99.90;;;;;;5076092;28;20079;-77
2022/01/23 14:22:56;;;;;;;3.20;1.30;;;6.30;99.90;;;;;;5077239;28;20524;-79
2022/01/23 14:25:27;;;;;;;3.33;1.30;;;6.30;99.90;;;;;;5059731;28;20078;-78
2022/01/23 14:28:04;;;;;;;3.33;1.48;;;6.30;99.90;;;;;;5078984;28;20043;-77
2022/01/23 14:30:30;;;;;;;4.50;1.70;;;6.30;99.90;;;;;;5077973;28;20051;-77
2022/01/23 14:33:05;;;;;;;3.00;1.40;;;6.20;99.90;;;;;;5096843;28;20048;-75
2022/01/23 14:35:33;;;;;;;3.20;1.40;;;6.40;99.90;;;;;;5098434;28;20056;-77
2022/01/23 14:38:23;;;;;;;3.20;1.33;;;6.30;99.90;;;;;;5095787;28;20060;-76
2022/01/23 14:41:09;;;;;;;4.80;1.58;;;6.20;99.90;;;;;;5098544;28;20052;-78
2022/01/23 14:43:39;;;;;;;2.65;1.38;;;6.20;99.90;;;;;;5094062;28;20036;-78
2022/01/23 14:46:10;;;;;;;3.05;1.40;;;6.20;99.90;;;;;;5089250;28;20432;-79
2022/01/23 14:48:46;;;;;;;2.53;1.33;;;6.20;99.90;;;;;;5088874;28;20092;-80
2022/01/23 14:51:21;;;;;;;2.33;1.27;;;6.20;99.90;;;;;;5091990;28;20192;-78
2022/01/23 14:53:48;;;;;;;2.80;1.40;;;6.30;99.90;;;;;;5101311;28;20121;-78
2022/01/23 14:56:14;;;;;;;3.20;1.20;;;6.20;99.90;;;;;;5101436;28;20658;-77
2022/01/23 14:58:42;;;;;;;2.38;1.13;;;6.20;99.90;;;;;;5100536;28;20103;-76
2022/01/23 15:01:10;;;;;;;5.18;1.15;;;6.20;99.90;;;;;;5101881;28;20392;-77
2022/01/23 15:03:37;;;;;;;2.88;1.30;;;6.20;99.90;;;;;;5101002;28;20074;-76
2022/01/23 15:06:03;;;;;;;4.18;1.27;;;6.10;99.90;;;;;;5102277;28;20161;-75
2022/01/23 15:08:29;;;;;;;2.60;1.10;;;6.10;99.90;;;;;;5101009;28;20131;-76
2022/01/23 15:11:00;;;;;;;1.77;1.05;;;6.10;99.90;;;;;;5100664;28;20083;-76
2022/01/23 15:13:28;;;;;;;2.33;1.10;;;6.10;99.90;;;;;;5099795;28;20048;-76
2022/01/23 15:15:55;;;;;;;2.00;0.93;;;6.10;99.90;;;;;;5099328;28;20044;-75
2022/01/23 15:18:22;;;;;;;3.03;1.42;;;6.10;99.90;;;;;;5101005;28;20032;-75
2022/01/23 15:20:49;;;;;;;2.70;1.30;;;6.10;99.90;;;;;;5100590;28;20047;-76
2022/01/23 15:23:16;;;;;;;2.17;1.08;;;6.10;99.90;;;;;;5093741;28;20078;-75
2022/01/23 15:25:43;;;;;;;2.63;0.98;;;6.10;99.90;;;;;;5083768;28;20052;-76
2022/01/23 15:28:10;;;;;;;1.83;0.90;;;6.10;99.90;;;;;;5088133;28;20060;-74
2022/01/23 15:30:36;;;;;;;1.80;0.90;;;6.00;99.90;;;;;;5090683;28;20040;-75
2022/01/23 15:33:03;;;;;;;3.47;1.33;;;6.10;99.90;;;;;;5095302;28;20041;-78
2022/01/23 15:35:29;;;;;;;2.45;1.10;;;6.00;99.90;;;;;;5088029;28;20059;-74
2022/01/23 15:37:55;;;;;;;2.33;1.08;;;6.00;99.90;;;;;;5089815;28;20052;-76
2022/01/23 15:40:22;;;;;;;3.00;1.30;;;6.10;99.90;;;;;;5089346;28;20037;-76
2022/01/23 15:42:50;;;;;;;2.60;1.02;;;6.10;99.90;;;;;;5093171;28;20078;-78
2022/01/23 15:45:17;;;;;;;2.70;0.90;;;6.00;99.90;;;;;;5088791;28;20149;-76
2022/01/23 15:47:43;;;;;;;1.98;0.95;;;6.10;99.90;;;;;;5088662;28;20173;-75
2022/01/23 15:50:12;;;;;;;3.50;1.13;;;6.00;99.90;;;;;;5090005;28;20047;-75
2022/01/23 15:52:38;;;;;;;3.20;1.00;;;6.00;99.90;;;;;;5088577;28;20043;-74
2022/01/23 15:55:05;;;;;;;2.00;1.00;;;6.00;99.90;;;;;;5087880;28;20039;-74
2022/01/23 15:57:31;;;;;;;1.52;0.80;;;6.00;99.90;;;;;;5088517;28;20098;-74
2022/01/23 15:59:56;;;;;;;15.63;1.55;;;6.00;99.90;;;;;;5089770;28;20044;-76
2022/01/23 16:02:22;;;;;;;3.03;1.60;;;5.90;99.90;;;;;;5090842;28;20042;-75
2022/01/23 16:04:48;;;;;;;2.83;1.50;;;6.00;99.90;;;;;;5087471;28;20048;-76
2022/01/23 16:07:18;;;;;;;2.53;1.58;;;6.00;99.90;;;;;;5087994;28;20039;-75
2022/01/23 16:09:47;;;;;;;2.72;1.50;;;6.00;99.90;;;;;;5088814;28;20072;-77
2022/01/23 16:12:15;;;;;;;3.10;1.73;;;6.00;99.90;;;;;;5087570;28;20043;-76
2022/01/23 16:14:41;;;;;;;3.63;2.22;;;6.00;99.90;;;;;;5086834;28;20040;-74
2022/01/23 16:17:08;;;;;;;3.00;1.63;;;6.00;99.90;;;;;;5088077;28;20040;-73
2022/01/23 16:19:34;;;;;;;3.13;1.67;;;6.00;99.90;;;;;;5088088;28;20036;-74
2022/01/23 16:22:00;;;;;;;3.50;1.98;;;6.00;99.90;;;;;;5087616;28;20044;-74
2022/01/23 16:24:27;;;;;;;3.45;1.38;;;5.90;99.90;;;;;;5084544;28;20077;-75
2022/01/23 16:26:54;;;;;;;3.50;1.70;;;6.00;99.90;;;;;;5088845;28;20048;-74
2022/01/23 16:29:21;;;;;;;3.58;1.77;;;5.90;99.90;;;;;;5087777;28;20127;-74
2022/01/23 16:31:53;;;;;;;3.28;1.80;;;5.90;99.90;;;;;;5095667;28;20399;-74
2022/01/23 16:34:18;;;;;;;3.35;1.75;;;6.00;99.90;;;;;;5087381;28;20084;-77
2022/01/23 16:36:44;;;;;;;2.40;1.50;;;6.00;99.90;;;;;;5089010;28;20539;-75
2022/01/23 16:39:12;;;;;;;3.03;1.70;;;5.90;99.90;;;;;;5089789;28;20036;-75
2022/01/23 16:41:38;;;;;;;3.80;2.03;;;5.90;99.90;;;;;;5084022;28;20044;-75